sensor_id;sensor_type;location;lat;lon;timestamp;pressure;altitude;pressure_sealevel;temperature;humidity
69153;BME280;56261;51.580;4.578;2022-12-18T00:01:20;102941.47;;;-4.68;100.00
69153;BME280;56261;51.580;4.578;2022-12-18T00:03:46;102948.53;;;-4.80;100.00
69153;BME280;56261;51.580;4.578;2022-12-18T00:06:11;102942.44;;;-4.77;100.00
69153;BME280;56261;51.580;4.578;2022-12-18T00:08:39;102939.91;;;-4.82;100.00
69153;BME280;56261;51.580;4.578;2022-12-18T00:11:09;102938.16;;;-4.83;100.00
69153;BME280;56261;51.580;4.578;2022-12-18T00:13:35;102936.50;;;-4.91;100.00
69153;BME280;56261;51.580;4.578;2022-12-18T00:16:05;102935.56;;;-4.83;100.00
69153;BME280;56261;51.580;4.578;2022-12-18T00:18:32;102924.22;;;-4.77;100.00
69153;BME280;56261;51.580;4.578;2022-12-18T00:21:05;102925.03;;;-4.73;100.00
69153;BME280;56261;51.580;4.578;2022-12-18T00:23:33;102922.34;;;-4.66;100.00
69153;BME280;56261;51.580;4.578;2022-12-18T00:26:04;102925.81;;;-4.67;100.00
69153;BME280;56261;51.580;4.578;2022-12-18T00:28:30;102921.53;;;-4.71;100.00
69153;BME280;56261;51.580;4.578;2022-12-18T00:31:05;102920.56;;;-4.64;100.00
69153;BME280;56261;51.580;4.578;2022-12-18T00:33:31;102925.78;;;-4.65;100.00
69153;BME280;56261;51.580;4.578;2022-12-18T00:36:28;102940.63;;;-4.70;100.00
69153;BME280;56261;51.580;4.578;2022-12-18T00:38:55;102941.41;;;-4.67;100.00
69153;BME280;56261;51.580;4.578;2022-12-18T00:41:20;102935.41;;;-4.69;100.00
69153;BME280;56261;51.580;4.578;2022-12-18T00:44:10;102913.00;;;-4.82;100.00
69153;BME280;56261;51.580;4.578;2022-12-18T00:46:35;102928.53;;;-4.74;100.00
69153;BME280;56261;51.580;4.578;2022-12-18T00:49:01;102925.19;;;-4.87;100.00
69153;BME280;56261;51.580;4.578;2022-12-18T00:51:27;102925.19;;;-4.84;100.00
69153;BME280;56261;51.580;4.578;2022-12-18T00:53:52;102929.66;;;-4.98;100.00
69153;BME280;56261;51.580;4.578;2022-12-18T00:56:18;102944.28;;;-4.87;100.00
69153;BME280;56261;51.580;4.578;2022-12-18T00:58:43;102933.97;;;-4.94;100.00
69153;BME280;56261;51.580;4.578;2022-12-18T01:01:09;102934.81;;;-4.91;100.00
69153;BME280;56261;51.580;4.578;2022-12-18T01:03:34;102940.00;;;-4.91;100.00
69153;BME280;56261;51.580;4.578;2022-12-18T01:06:08;102939.22;;;-4.97;100.00
69153;BME280;56261;51.580;4.578;2022-12-18T01:08:34;102932.25;;;-4.97;100.00
69153;BME280;56261;51.580;4.578;2022-12-18T01:11:01;102944.41;;;-4.97;100.00
69153;BME280;56261;51.580;4.578;2022-12-18T01:13:27;102934.94;;;-5.05;100.00
69153;BME280;56261;51.580;4.578;2022-12-18T01:15:52;102934.97;;;-5.08;100.00
69153;BME280;56261;51.580;4.578;2022-12-18T01:18:18;102940.19;;;-5.08;100.00
69153;BME280;56261;51.580;4.578;2022-12-18T01:20:43;102928.13;;;-5.16;100.00
69153;BME280;56261;51.580;4.578;2022-12-18T01:23:09;102929.03;;;-5.19;100.00
69153;BME280;56261;51.580;4.578;2022-12-18T01:25:38;102924.63;;;-5.12;100.00
69153;BME280;56261;51.580;4.578;2022-12-18T01:28:03;102923.84;;;-5.21;100.00
69153;BME280;56261;51.580;4.578;2022-12-18T01:30:28;102929.09;;;-5.25;100.00
69153;BME280;56261;51.580;4.578;2022-12-18T01:32:54;102931.69;;;-5.24;100.00
69153;BME280;56261;51.580;4.578;2022-12-18T01:35:19;102917.00;;;-5.28;100.00
69153;BME280;56261;51.580;4.578;2022-12-18T01:37:44;102916.97;;;-5.26;100.00
69153;BME280;56261;51.580;4.578;2022-12-18T01:40:10;102921.41;;;-5.36;100.00
69153;BME280;56261;51.580;4.578;2022-12-18T01:42:36;102913.63;;;-5.39;100.00
69153;BME280;56261;51.580;4.578;2022-12-18T01:47:49;102919.69;;;-5.38;100.00
69153;BME280;56261;51.580;4.578;2022-12-18T01:50:17;102925.84;;;-5.44;100.00
69153;BME280;56261;51.580;4.578;2022-12-18T01:52:47;102921.53;;;-5.50;100.00
69153;BME280;56261;51.580;4.578;2022-12-18T01:55:14;102927.59;;;-5.46;100.00
69153;BME280;56261;51.580;4.578;2022-12-18T01:57:41;102928.50;;;-5.52;100.00
69153;BME280;56261;51.580;4.578;2022-12-18T02:00:13;102928.53;;;-5.55;100.00
69153;BME280;56261;51.580;4.578;2022-12-18T02:02:43;102923.38;;;-5.59;100.00
69153;BME280;56261;51.580;4.578;2022-12-18T02:05:10;102925.97;;;-5.58;100.00
69153;BME280;56261;51.580;4.578;2022-12-18T02:15:44;102912.13;;;-5.60;100.00
69153;BME280;56261;51.580;4.578;2022-12-18T02:21:03;102919.88;;;-5.55;100.00
69153;BME280;56261;51.580;4.578;2022-12-18T02:23:37;102923.38;;;-5.58;100.00
69153;BME280;56261;51.580;4.578;2022-12-18T02:26:10;102919.09;;;-5.64;100.00
69153;BME280;56261;51.580;4.578;2022-12-18T02:28:45;102917.28;;;-5.55;100.00
69153;BME280;56261;51.580;4.578;2022-12-18T02:31:18;102912.13;;;-5.61;100.00
69153;BME280;56261;51.580;4.578;2022-12-18T02:33:45;102910.38;;;-5.61;100.00
69153;BME280;56261;51.580;4.578;2022-12-18T02:36:13;102909.56;;;-5.66;100.00
69153;BME280;56261;51.580;4.578;2022-12-18T02:38:42;102912.22;;;-5.74;100.00
69153;BME280;56261;51.580;4.578;2022-12-18T02:41:08;102907.84;;;-5.67;100.00
69153;BME280;56261;51.580;4.578;2022-12-18T02:43:33;102898.34;;;-5.70;100.00
69153;BME280;56261;51.580;4.578;2022-12-18T02:46:00;102903.63;;;-5.79;100.00
69153;BME280;56261;51.580;4.578;2022-12-18T02:48:46;102895.88;;;-5.85;100.00
69153;BME280;56261;51.580;4.578;2022-12-18T02:51:27;102891.53;;;-5.81;100.00
69153;BME280;56261;51.580;4.578;2022-12-18T02:54:09;102893.22;;;-5.76;100.00
69153;BME280;56261;51.580;4.578;2022-12-18T02:56:42;102877.59;;;-5.74;100.00
69153;BME280;56261;51.580;4.578;2022-12-18T02:59:16;102874.94;;;-5.70;100.00
69153;BME280;56261;51.580;4.578;2022-12-18T03:01:57;102876.63;;;-5.64;100.00
69153;BME280;56261;51.580;4.578;2022-12-18T03:04:29;102877.63;;;-5.80;100.00
69153;BME280;56261;51.580;4.578;2022-12-18T03:06:58;102881.97;;;-5.79;100.00
69153;BME280;56261;51.580;4.578;2022-12-18T03:09:29;102875.84;;;-5.71;100.00
69153;BME280;56261;51.580;4.578;2022-12-18T03:12:04;102880.16;;;-5.70;100.00
69153;BME280;56261;51.580;4.578;2022-12-18T03:15:04;102881.97;;;-5.78;100.00
69153;BME280;56261;51.580;4.578;2022-12-18T03:17:33;102888.88;;;-5.78;100.00
69153;BME280;56261;51.580;4.578;2022-12-18T03:20:05;102873.34;;;-5.80;100.00
69153;BME280;56261;51.580;4.578;2022-12-18T03:22:33;102873.38;;;-5.85;100.00
69153;BME280;56261;51.580;4.578;2022-12-18T03:25:03;102871.53;;;-5.75;100.00
69153;BME280;56261;51.580;4.578;2022-12-18T03:27:31;102861.94;;;-5.70;100.00
69153;BME280;56261;51.580;4.578;2022-12-18T03:30:03;102866.38;;;-5.78;100.00
69153;BME280;56261;51.580;4.578;2022-12-18T03:33:09;102865.44;;;-5.72;100.00
69153;BME280;56261;51.580;4.578;2022-12-18T03:35:39;102845.47;;;-5.66;100.00
69153;BME280;56261;51.580;4.578;2022-12-18T03:38:06;102849.06;;;-5.79;100.00
69153;BME280;56261;51.580;4.578;2022-12-18T03:40:43;102852.53;;;-5.80;100.00
69153;BME280;56261;51.580;4.578;2022-12-18T03:46:08;102850.91;;;-5.92;100.00
69153;BME280;56261;51.580;4.578;2022-12-18T03:48:41;102861.19;;;-5.81;100.00
69153;BME280;56261;51.580;4.578;2022-12-18T03:54:00;102859.53;;;-5.90;100.00
69153;BME280;56261;51.580;4.578;2022-12-18T03:56:31;102863.78;;;-5.81;100.00
69153;BME280;56261;51.580;4.578;2022-12-18T03:59:00;102864.72;;;-5.90;100.00
69153;BME280;56261;51.580;4.578;2022-12-18T04:01:36;102856.09;;;-5.89;100.00
69153;BME280;56261;51.580;4.578;2022-12-18T04:04:03;102862.91;;;-5.78;100.00
69153;BME280;56261;51.580;4.578;2022-12-18T04:06:30;102855.31;;;-5.95;100.00
69153;BME280;56261;51.580;4.578;2022-12-18T04:08:57;102848.41;;;-5.98;100.00
69153;BME280;56261;51.580;4.578;2022-12-18T04:11:23;102851.91;;;-6.02;100.00
69153;BME280;56261;51.580;4.578;2022-12-18T04:13:48;102856.25;;;-6.04;100.00
69153;BME280;56261;51.580;4.578;2022-12-18T04:16:13;102863.97;;;-5.96;100.00
69153;BME280;56261;51.580;4.578;2022-12-18T04:18:39;102857.91;;;-5.95;100.00
69153;BME280;56261;51.580;4.578;2022-12-18T04:21:04;102851.06;;;-6.06;100.00
69153;BME280;56261;51.580;4.578;2022-12-18T04:23:29;102850.28;;;-6.14;100.00
69153;BME280;56261;51.580;4.578;2022-12-18T04:25:55;102852.91;;;-6.18;100.00
69153;BME280;56261;51.580;4.578;2022-12-18T04:28:21;102851.09;;;-6.10;100.00
69153;BME280;56261;51.580;4.578;2022-12-18T04:30:46;102858.94;;;-6.16;100.00
69153;BME280;56261;51.580;4.578;2022-12-18T04:33:13;102850.31;;;-6.20;100.00
69153;BME280;56261;51.580;4.578;2022-12-18T04:35:39;102847.72;;;-6.18;100.00
69153;BME280;56261;51.580;4.578;2022-12-18T04:38:06;102848.66;;;-6.27;100.00
69153;BME280;56261;51.580;4.578;2022-12-18T04:40:33;102845.13;;;-6.18;100.00
69153;BME280;56261;51.580;4.578;2022-12-18T04:42:59;102847.81;;;-6.29;100.00
69153;BME280;56261;51.580;4.578;2022-12-18T04:45:24;102846.94;;;-6.31;100.00
69153;BME280;56261;51.580;4.578;2022-12-18T04:47:49;102838.19;;;-6.21;100.00
69153;BME280;56261;51.580;4.578;2022-12-18T04:50:15;102839.09;;;-6.20;100.00
69153;BME280;56261;51.580;4.578;2022-12-18T04:52:40;102844.28;;;-6.20;100.00
69153;BME280;56261;51.580;4.578;2022-12-18T04:55:06;102846.81;;;-6.14;100.00
69153;BME280;56261;51.580;4.578;2022-12-18T04:57:32;102848.50;;;-6.12;100.00
69153;BME280;56261;51.580;4.578;2022-12-18T04:59:58;102839.91;;;-6.14;100.00
69153;BME280;56261;51.580;4.578;2022-12-18T05:02:23;102856.38;;;-6.18;100.00
69153;BME280;56261;51.580;4.578;2022-12-18T05:04:48;102849.44;;;-6.17;100.00
69153;BME280;56261;51.580;4.578;2022-12-18T05:07:14;102856.38;;;-6.19;100.00
69153;BME280;56261;51.580;4.578;2022-12-18T05:09:40;102847.72;;;-6.20;100.00
69153;BME280;56261;51.580;4.578;2022-12-18T05:12:06;102852.91;;;-6.20;100.00
69153;BME280;56261;51.580;4.578;2022-12-18T05:14:31;102851.19;;;-6.21;100.00
69153;BME280;56261;51.580;4.578;2022-12-18T05:16:56;102863.34;;;-6.24;100.00
69153;BME280;56261;51.580;4.578;2022-12-18T05:19:22;102858.94;;;-6.16;100.00
69153;BME280;56261;51.580;4.578;2022-12-18T05:21:47;102853.81;;;-6.26;100.00
69153;BME280;56261;51.580;4.578;2022-12-18T05:24:12;102857.19;;;-6.11;100.00
69153;BME280;56261;51.580;4.578;2022-12-18T05:26:38;102852.88;;;-6.15;100.00
69153;BME280;56261;51.580;4.578;2022-12-18T05:29:03;102851.09;;;-6.10;100.00
69153;BME280;56261;51.580;4.578;2022-12-18T05:31:28;102838.88;;;-5.96;100.00
69153;BME280;56261;51.580;4.578;2022-12-18T05:33:54;102848.47;;;-6.06;100.00
69153;BME280;56261;51.580;4.578;2022-12-18T05:36:19;102837.25;;;-6.12;100.00
69153;BME280;56261;51.580;4.578;2022-12-18T05:38:45;102844.19;;;-6.14;100.00
69153;BME280;56261;51.580;4.578;2022-12-18T05:41:10;102847.75;;;-6.24;100.00
69153;BME280;56261;51.580;4.578;2022-12-18T05:43:38;102834.78;;;-6.26;100.00
69153;BME280;56261;51.580;4.578;2022-12-18T05:46:09;102844.34;;;-6.34;100.00
69153;BME280;56261;51.580;4.578;2022-12-18T05:48:36;102830.47;;;-6.27;100.00
69153;BME280;56261;51.580;4.578;2022-12-18T05:51:07;102848.50;;;-6.09;100.00
69153;BME280;56261;51.580;4.578;2022-12-18T05:53:33;102850.28;;;-6.15;100.00
69153;BME280;56261;51.580;4.578;2022-12-18T05:56:03;102845.97;;;-6.19;100.00
69153;BME280;56261;51.580;4.578;2022-12-18T05:58:29;102850.41;;;-6.31;100.00
69153;BME280;56261;51.580;4.578;2022-12-18T06:00:55;102853.88;;;-6.36;100.00
69153;BME280;56261;51.580;4.578;2022-12-18T06:03:21;102845.97;;;-6.21;100.00
69153;BME280;56261;51.580;4.578;2022-12-18T06:05:46;102834.81;;;-6.29;100.00
69153;BME280;56261;51.580;4.578;2022-12-18T06:08:13;102828.88;;;-6.45;100.00
69153;BME280;56261;51.580;4.578;2022-12-18T06:10:38;102835.84;;;-6.55;100.00
69153;BME280;56261;51.580;4.578;2022-12-18T06:13:04;102832.31;;;-6.43;100.00
69153;BME280;56261;51.580;4.578;2022-12-18T06:15:30;102825.41;;;-6.45;100.00
69153;BME280;56261;51.580;4.578;2022-12-18T06:17:55;102833.19;;;-6.42;100.00
69153;BME280;56261;51.580;4.578;2022-12-18T06:20:21;102829.75;;;-6.44;100.00
69153;BME280;56261;51.580;4.578;2022-12-18T06:22:47;102841.03;;;-6.52;100.00
69153;BME280;56261;51.580;4.578;2022-12-18T06:25:12;102837.53;;;-6.48;100.00
69153;BME280;56261;51.580;4.578;2022-12-18T06:27:37;102828.84;;;-6.42;100.00
69153;BME280;56261;51.580;4.578;2022-12-18T06:30:04;102815.03;;;-6.45;100.00
69153;BME280;56261;51.580;4.578;2022-12-18T06:32:30;102825.44;;;-6.49;100.00
69153;BME280;56261;51.580;4.578;2022-12-18T06:34:55;102825.44;;;-6.47;100.00
69153;BME280;56261;51.580;4.578;2022-12-18T06:37:21;102819.44;;;-6.54;100.00
69153;BME280;56261;51.580;4.578;2022-12-18T06:39:49;102816.81;;;-6.49;100.00
69153;BME280;56261;51.580;4.578;2022-12-18T06:42:15;102822.00;;;-6.49;100.00
69153;BME280;56261;51.580;4.578;2022-12-18T06:44:40;102816.75;;;-6.44;100.00
69153;BME280;56261;51.580;4.578;2022-12-18T06:47:05;102796.94;;;-6.52;100.00
69153;BME280;56261;51.580;4.578;2022-12-18T06:49:31;102788.19;;;-6.41;100.00
69153;BME280;56261;51.580;4.578;2022-12-18T06:51:56;102790.84;;;-6.49;100.00
69153;BME280;56261;51.580;4.578;2022-12-18T06:54:21;102788.25;;;-6.49;100.00
69153;BME280;56261;51.580;4.578;2022-12-18T06:56:47;102788.28;;;-6.57;100.00
69153;BME280;56261;51.580;4.578;2022-12-18T06:59:13;102791.66;;;-6.44;100.00
69153;BME280;56261;51.580;4.578;2022-12-18T07:01:40;102783.94;;;-6.52;100.00
69153;BME280;56261;51.580;4.578;2022-12-18T07:04:05;102774.47;;;-6.59;100.00
69153;BME280;56261;51.580;4.578;2022-12-18T07:06:30;102759.78;;;-6.61;100.00
69153;BME280;56261;51.580;4.578;2022-12-18T07:08:56;102758.91;;;-6.57;100.00
69153;BME280;56261;51.580;4.578;2022-12-18T07:11:22;102754.63;;;-6.63;100.00
69153;BME280;56261;51.580;4.578;2022-12-18T07:13:47;102751.09;;;-6.57;100.00
69153;BME280;56261;51.580;4.578;2022-12-18T07:16:15;102748.50;;;-6.59;100.00
69153;BME280;56261;51.580;4.578;2022-12-18T07:18:41;102733.84;;;-6.60;100.00
69153;BME280;56261;51.580;4.578;2022-12-18T07:21:13;102732.09;;;-6.61;100.00
69153;BME280;56261;51.580;4.578;2022-12-18T07:23:39;102720.91;;;-6.68;100.00
69153;BME280;56261;51.580;4.578;2022-12-18T07:26:06;102717.31;;;-6.50;100.00
69153;BME280;56261;51.580;4.578;2022-12-18T07:28:33;102714.78;;;-6.59;100.00
69153;BME280;56261;51.580;4.578;2022-12-18T07:31:05;102723.47;;;-6.60;100.00
69153;BME280;56261;51.580;4.578;2022-12-18T07:33:32;102732.06;;;-6.53;100.00
69153;BME280;56261;51.580;4.578;2022-12-18T07:36:02;102729.44;;;-6.52;100.00
69153;BME280;56261;51.580;4.578;2022-12-18T07:38:29;102726.00;;;-6.54;100.00
69153;BME280;56261;51.580;4.578;2022-12-18T07:40:54;102736.31;;;-6.44;100.00
69153;BME280;56261;51.580;4.578;2022-12-18T07:43:19;102720.75;;;-6.48;100.00
69153;BME280;56261;51.580;4.578;2022-12-18T07:45:45;102732.03;;;-6.52;100.00
69153;BME280;56261;51.580;4.578;2022-12-18T07:48:10;102723.38;;;-6.49;100.00
69153;BME280;56261;51.580;4.578;2022-12-18T07:50:36;102699.31;;;-6.68;100.00
69153;BME280;56261;51.580;4.578;2022-12-18T07:53:02;102723.34;;;-6.46;100.00
69153;BME280;56261;51.580;4.578;2022-12-18T07:55:31;102721.63;;;-6.50;100.00
69153;BME280;56261;51.580;4.578;2022-12-18T07:57:56;102730.31;;;-6.51;100.00
69153;BME280;56261;51.580;4.578;2022-12-18T08:00:22;102734.66;;;-6.55;100.00
69153;BME280;56261;51.580;4.578;2022-12-18T08:02:47;102736.34;;;-6.51;100.00
69153;BME280;56261;51.580;4.578;2022-12-18T08:05:13;102732.91;;;-6.50;100.00
69153;BME280;56261;51.580;4.578;2022-12-18T08:07:38;102719.94;;;-6.51;100.00
69153;BME280;56261;51.580;4.578;2022-12-18T08:10:04;102712.94;;;-6.46;100.00
69153;BME280;56261;51.580;4.578;2022-12-18T08:12:30;102727.63;;;-6.42;100.00
69153;BME280;56261;51.580;4.578;2022-12-18T08:14:55;102723.28;;;-6.40;100.00
69153;BME280;56261;51.580;4.578;2022-12-18T08:17:21;102716.41;;;-6.44;100.00
69153;BME280;56261;51.580;4.578;2022-12-18T08:19:46;102704.28;;;-6.43;100.00
69153;BME280;56261;51.580;4.578;2022-12-18T08:22:11;102692.13;;;-6.41;100.00
69153;BME280;56261;51.580;4.578;2022-12-18T08:24:37;102680.00;;;-6.41;100.00
69153;BME280;56261;51.580;4.578;2022-12-18T08:27:02;102693.78;;;-6.33;100.00
69153;BME280;56261;51.580;4.578;2022-12-18T08:29:28;102703.31;;;-6.35;100.00
69153;BME280;56261;51.580;4.578;2022-12-18T08:31:53;102724.03;;;-6.27;100.00
69153;BME280;56261;51.580;4.578;2022-12-18T08:34:18;102725.69;;;-6.18;100.00
69153;BME280;56261;51.580;4.578;2022-12-18T08:36:44;102717.84;;;-6.14;100.00
69153;BME280;56261;51.580;4.578;2022-12-18T08:39:09;102722.88;;;-6.00;100.00
69153;BME280;56261;51.580;4.578;2022-12-18T08:41:34;102717.69;;;-6.01;100.00
69153;BME280;56261;51.580;4.578;2022-12-18T08:44:00;102703.75;;;-5.94;100.00
69153;BME280;56261;51.580;4.578;2022-12-18T08:46:44;102710.63;;;-5.92;100.00
69153;BME280;56261;51.580;4.578;2022-12-18T08:49:10;102702.81;;;-5.87;100.00
69153;BME280;56261;51.580;4.578;2022-12-18T08:51:37;102709.75;;;-5.91;100.00
69153;BME280;56261;51.580;4.578;2022-12-18T08:54:03;102713.94;;;-5.76;100.00
69153;BME280;56261;51.580;4.578;2022-12-18T08:56:29;102715.56;;;-5.69;100.00
69153;BME280;56261;51.580;4.578;2022-12-18T08:58:55;102708.56;;;-5.65;100.00
69153;BME280;56261;51.580;4.578;2022-12-18T09:01:21;102713.69;;;-5.59;100.00
69153;BME280;56261;51.580;4.578;2022-12-18T09:03:48;102711.03;;;-5.53;100.00
69153;BME280;56261;51.580;4.578;2022-12-18T09:06:15;102709.34;;;-5.57;100.00
69153;BME280;56261;51.580;4.578;2022-12-18T09:08:42;102708.38;;;-5.48;100.00
69153;BME280;56261;51.580;4.578;2022-12-18T09:11:24;102714.28;;;-5.38;100.00
69153;BME280;56261;51.580;4.578;2022-12-18T09:13:50;102715.97;;;-5.33;100.00
69153;BME280;56261;51.580;4.578;2022-12-18T09:16:16;102708.88;;;-5.23;100.00
69153;BME280;56261;51.580;4.578;2022-12-18T09:18:41;102694.09;;;-5.19;100.00
69153;BME280;56261;51.580;4.578;2022-12-18T09:21:18;102681.09;;;-5.19;100.00
69153;BME280;56261;51.580;4.578;2022-12-18T09:23:52;102687.84;;;-5.08;100.00
69153;BME280;56261;51.580;4.578;2022-12-18T09:26:18;102676.50;;;-5.02;100.00
69153;BME280;56261;51.580;4.578;2022-12-18T09:28:43;102668.56;;;-4.94;100.00
69153;BME280;56261;51.580;4.578;2022-12-18T09:31:11;102665.97;;;-4.94;100.00
69153;BME280;56261;51.580;4.578;2022-12-18T09:33:36;102671.00;;;-4.82;100.00
69153;BME280;56261;51.580;4.578;2022-12-18T09:36:06;102659.59;;;-4.76;100.00
69153;BME280;56261;51.580;4.578;2022-12-18T09:38:33;102674.88;;;-4.55;100.00
69153;BME280;56261;51.580;4.578;2022-12-18T09:41:20;102683.44;;;-4.48;100.00
69153;BME280;56261;51.580;4.578;2022-12-18T09:43:53;102685.97;;;-4.47;100.00
69153;BME280;56261;51.580;4.578;2022-12-18T09:46:27;102690.03;;;-4.30;100.00
69153;BME280;56261;51.580;4.578;2022-12-18T09:48:58;102691.75;;;-4.29;100.00
69153;BME280;56261;51.580;4.578;2022-12-18T09:51:37;102695.25;;;-4.30;100.00
69153;BME280;56261;51.580;4.578;2022-12-18T09:54:07;102697.88;;;-4.32;100.00
69153;BME280;56261;51.580;4.578;2022-12-18T09:56:41;102695.00;;;-4.18;100.00
69153;BME280;56261;51.580;4.578;2022-12-18T09:59:37;102694.81;;;-4.07;100.00
69153;BME280;56261;51.580;4.578;2022-12-18T10:02:14;102687.81;;;-4.04;100.00
69153;BME280;56261;51.580;4.578;2022-12-18T10:04:40;102681.72;;;-4.04;100.00
69153;BME280;56261;51.580;4.578;2022-12-18T10:07:15;102682.41;;;-3.94;100.00
69153;BME280;56261;51.580;4.578;2022-12-18T10:09:59;102679.00;;;-3.98;100.00
69153;BME280;56261;51.580;4.578;2022-12-18T10:12:59;102669.16;;;-3.84;100.00
69153;BME280;56261;51.580;4.578;2022-12-18T10:21:12;102636.13;;;-3.82;100.00
69153;BME280;56261;51.580;4.578;2022-12-18T10:23:57;102628.19;;;-3.77;100.00
69153;BME280;56261;51.580;4.578;2022-12-18T10:26:27;102623.69;;;-3.70;100.00
69153;BME280;56261;51.580;4.578;2022-12-18T10:28:52;102622.53;;;-3.57;100.00
69153;BME280;56261;51.580;4.578;2022-12-18T10:31:21;102611.84;;;-3.46;100.00
69153;BME280;56261;51.580;4.578;2022-12-18T10:33:47;102608.41;;;-3.48;100.00
69153;BME280;56261;51.580;4.578;2022-12-18T10:36:13;102607.63;;;-3.50;100.00
69153;BME280;56261;51.580;4.578;2022-12-18T10:38:39;102588.34;;;-3.45;100.00
69153;BME280;56261;51.580;4.578;2022-12-18T10:41:23;102590.09;;;-3.45;100.00
69153;BME280;56261;51.580;4.578;2022-12-18T10:46:37;102596.06;;;-3.40;100.00
69153;BME280;56261;51.580;4.578;2022-12-18T10:49:02;102587.25;;;-3.35;100.00
69153;BME280;56261;51.580;4.578;2022-12-18T10:51:33;102594.94;;;-3.30;100.00
69153;BME280;56261;51.580;4.578;2022-12-18T10:54:05;102599.50;;;-3.40;100.00
69153;BME280;56261;51.580;4.578;2022-12-18T10:56:34;102599.47;;;-3.38;100.00
69153;BME280;56261;51.580;4.578;2022-12-18T10:59:06;102608.84;;;-3.29;100.00
69153;BME280;56261;51.580;4.578;2022-12-18T11:01:52;102610.28;;;-3.18;100.00
69153;BME280;56261;51.580;4.578;2022-12-18T11:04:23;102606.59;;;-3.07;100.00
69153;BME280;56261;51.580;4.578;2022-12-18T11:07:08;102602.44;;;-3.16;100.00
69153;BME280;56261;51.580;4.578;2022-12-18T11:09:38;102601.41;;;-3.10;100.00
69153;BME280;56261;51.580;4.578;2022-12-18T11:12:15;102596.16;;;-3.09;100.00
69153;BME280;56261;51.580;4.578;2022-12-18T11:14:52;102606.47;;;-3.03;100.00
69153;BME280;56261;51.580;4.578;2022-12-18T11:20:04;102590.59;;;-2.95;100.00
69153;BME280;56261;51.580;4.578;2022-12-18T11:22:33;102597.41;;;-2.88;100.00
69153;BME280;56261;51.580;4.578;2022-12-18T11:25:02;102592.81;;;-2.80;100.00
69153;BME280;56261;51.580;4.578;2022-12-18T11:27:30;102586.78;;;-2.82;100.00
69153;BME280;56261;51.580;4.578;2022-12-18T11:30:09;102578.78;;;-2.76;100.00
69153;BME280;56261;51.580;4.578;2022-12-18T11:32:43;102579.63;;;-2.75;100.00
69153;BME280;56261;51.580;4.578;2022-12-18T11:35:39;102562.19;;;-2.73;100.00
69153;BME280;56261;51.580;4.578;2022-12-18T11:38:26;102557.81;;;-2.73;100.00
69153;BME280;56261;51.580;4.578;2022-12-18T11:46:18;102561.88;;;-2.62;100.00
69153;BME280;56261;51.580;4.578;2022-12-18T11:51:32;102549.25;;;-2.46;100.00
69153;BME280;56261;51.580;4.578;2022-12-18T11:54:00;102549.09;;;-2.40;100.00
69153;BME280;56261;51.580;4.578;2022-12-18T11:56:36;102531.44;;;-2.32;100.00
69153;BME280;56261;51.580;4.578;2022-12-18T11:59:09;102516.44;;;-2.25;100.00
69153;BME280;56261;51.580;4.578;2022-12-18T12:15:39;102479.63;;;-2.18;100.00
69153;BME280;56261;51.580;4.578;2022-12-18T12:18:33;102484.81;;;-2.16;100.00
69153;BME280;56261;51.580;4.578;2022-12-18T12:21:23;102482.09;;;-2.13;100.00
69153;BME280;56261;51.580;4.578;2022-12-18T12:32:36;102491.31;;;-2.01;100.00
69153;BME280;56261;51.580;4.578;2022-12-18T12:35:11;102491.97;;;-1.95;100.00
69153;BME280;56261;51.580;4.578;2022-12-18T12:40:06;102481.38;;;-1.90;100.00
69153;BME280;56261;51.580;4.578;2022-12-18T12:42:44;102484.75;;;-1.86;100.00
69153;BME280;56261;51.580;4.578;2022-12-18T12:45:44;102470.56;;;-1.79;100.00
69153;BME280;56261;51.580;4.578;2022-12-18T12:48:33;102467.88;;;-1.76;100.00
69153;BME280;56261;51.580;4.578;2022-12-18T12:51:03;102474.91;;;-1.78;100.00
69153;BME280;56261;51.580;4.578;2022-12-18T12:53:35;102468.88;;;-1.80;100.00
69153;BME280;56261;51.580;4.578;2022-12-18T12:56:03;102473.22;;;-1.81;100.00
69153;BME280;56261;51.580;4.578;2022-12-18T13:07:20;102447.66;;;-1.71;100.00
69153;BME280;56261;51.580;4.578;2022-12-18T13:20:48;102434.28;;;-1.63;100.00
69153;BME280;56261;51.580;4.578;2022-12-18T13:23:37;102430.63;;;-1.58;100.00
69153;BME280;56261;51.580;4.578;2022-12-18T13:34:24;102409.59;;;-1.55;100.00
69153;BME280;56261;51.580;4.578;2022-12-18T13:36:52;102414.09;;;-1.58;100.00
69153;BME280;56261;51.580;4.578;2022-12-18T13:42:35;102408.63;;;-1.52;100.00
69153;BME280;56261;51.580;4.578;2022-12-18T13:44:59;102402.31;;;-1.45;100.00
69153;BME280;56261;51.580;4.578;2022-12-18T13:47:31;102403.03;;;-1.41;100.00
69153;BME280;56261;51.580;4.578;2022-12-18T13:49:58;102395.22;;;-1.43;100.00
69153;BME280;56261;51.580;4.578;2022-12-18T13:52:24;102394.91;;;-1.59;100.00
69153;BME280;56261;51.580;4.578;2022-12-18T13:54:53;102397.19;;;-1.50;100.00
69153;BME280;56261;51.580;4.578;2022-12-18T13:57:38;102389.66;;;-1.59;100.00
69153;BME280;56261;51.580;4.578;2022-12-18T14:02:49;102395.72;;;-1.57;100.00
69153;BME280;56261;51.580;4.578;2022-12-18T14:05:29;102400.78;;;-1.52;100.00
69153;BME280;56261;51.580;4.578;2022-12-18T14:08:00;102395.06;;;-1.63;100.00
69153;BME280;56261;51.580;4.578;2022-12-18T14:10:26;102389.44;;;-1.51;100.00
69153;BME280;56261;51.580;4.578;2022-12-18T14:12:51;102388.75;;;-1.56;100.00
69153;BME280;56261;51.580;4.578;2022-12-18T14:17:58;102386.03;;;-1.55;100.00
69153;BME280;56261;51.580;4.578;2022-12-18T14:20:25;102387.53;;;-1.48;100.00
69153;BME280;56261;51.580;4.578;2022-12-18T14:22:51;102377.81;;;-1.44;100.00
69153;BME280;56261;51.580;4.578;2022-12-18T14:25:22;102366.59;;;-1.48;100.00
69153;BME280;56261;51.580;4.578;2022-12-18T14:30:51;102355.66;;;-1.59;100.00
69153;BME280;56261;51.580;4.578;2022-12-18T14:33:17;102361.00;;;-1.62;100.00
69153;BME280;56261;51.580;4.578;2022-12-18T14:36:00;102352.03;;;-1.55;100.00